Главная страница
METAR-TAF:

METAR-TAF

Аэропорты :

Висбю, Готланд, Швеция

широта: 57-40N, долгота: 018-21E, высота над уровнем моря: 51 м

Текущие метеонаблюдения

Эта сводка был подготовлена 26 минут назад, в 10:50 UTC
Ветер 8 Узел от западный
Температура 24°C
Влажность 61%
Давление 1021 hPa
Видимость 10 км и более
Нет облачности ниже 1500 м, и нет кучево-дождевой облачности

METAR: ESSV 091050Z 27008KT CAVOK 24/16 Q1021

Время: 13:16 (11:16 UTC)

Прогноз

Эта сводка был подготовлена 2 часа и 46 минут назад, в 08:30 UTC
Прогноз действительный с 09-го 09 UTC до 09-го 18 UTC
Ветер 8 Узел от западно-северо-западный
Видимость 10 км и более
Нет облачности ниже 1500 м, и нет кучево-дождевой облачности
изменения
С 09-го 12 UTC до 09-го 14 UTC
Ветер 12 Узел от северный
изменения
С 09-го 16 UTC до 09-го 18 UTC
Ветер 10 Узел от восточно-северо-восточный

TAF: ESSV 090830Z 0909/0918 29008KT CAVOK BECMG 0912/0914 36012KT BECMG 0916/0918 06010KT

Метеонаблюдения и прогнозы для более 4000 аэропортов (сводки METAR и TAF).

Имеющиеся станции представлены на карте желтыми и красными точками.

Чтобы увидеть название станции, наведите на нее мышь.

Затем щелкните, чтобы увидеть метеонаблюдения и метеопрогнозы.

Управление картой: чтобы увеличить масштаб, щелкните зеленые кнопки с черным крестиком; чтобы уменьшить масштаб, щелкните зеленую кнопку с тире; для просмотра соседних карт щелкайте зеленые стрелки.


METAR-TAF: